sensor_id;sensor_type;location;lat;lon;timestamp;temperature;humidity
76577;DHT22;65441;44.748;37.600;2023-04-01T00:01:30;5.82;72.93
76577;DHT22;65441;44.748;37.600;2023-04-01T00:03:59;5.74;73.46
76577;DHT22;65441;44.748;37.600;2023-04-01T00:06:29;5.78;72.96
76577;DHT22;65441;44.748;37.600;2023-04-01T00:08:59;5.77;72.88
76577;DHT22;65441;44.748;37.600;2023-04-01T00:11:28;5.74;73.57
76577;DHT22;65441;44.748;37.600;2023-04-01T00:13:57;5.75;72.89
76577;DHT22;65441;44.748;37.600;2023-04-01T00:16:26;5.74;73.25
76577;DHT22;65441;44.748;37.600;2023-04-01T00:18:55;5.74;73.08
76577;DHT22;65441;44.748;37.600;2023-04-01T00:21:24;5.78;72.56
76577;DHT22;65441;44.748;37.600;2023-04-01T00:23:53;5.76;72.63
76577;DHT22;65441;44.748;37.600;2023-04-01T00:26:23;5.72;72.79
76577;DHT22;65441;44.748;37.600;2023-04-01T00:28:52;5.70;72.80
76577;DHT22;65441;44.748;37.600;2023-04-01T00:31:21;5.70;72.64
76577;DHT22;65441;44.748;37.600;2023-04-01T00:33:51;5.65;73.09
76577;DHT22;65441;44.748;37.600;2023-04-01T00:36:21;5.68;72.88
76577;DHT22;65441;44.748;37.600;2023-04-01T00:38:50;5.60;72.56
76577;DHT22;65441;44.748;37.600;2023-04-01T00:41:20;5.62;71.96
76577;DHT22;65441;44.748;37.600;2023-04-01T00:43:51;5.62;72.02
76577;DHT22;65441;44.748;37.600;2023-04-01T00:46:20;5.60;72.32
76577;DHT22;65441;44.748;37.600;2023-04-01T00:48:51;5.60;72.22
76577;DHT22;65441;44.748;37.600;2023-04-01T00:51:25;5.57;72.45
76577;DHT22;65441;44.748;37.600;2023-04-01T00:53:58;5.52;72.61
76577;DHT22;65441;44.748;37.600;2023-04-01T00:56:31;5.52;73.02
76577;DHT22;65441;44.748;37.600;2023-04-01T00:59:05;5.49;72.99
76577;DHT22;65441;44.748;37.600;2023-04-01T01:01:35;5.43;73.32
76577;DHT22;65441;44.748;37.600;2023-04-01T01:04:05;5.46;73.33
76577;DHT22;65441;44.748;37.600;2023-04-01T01:06:41;5.45;73.36
76577;DHT22;65441;44.748;37.600;2023-04-01T01:09:26;5.50;73.00
76577;DHT22;65441;44.748;37.600;2023-04-01T01:12:03;5.50;72.87
76577;DHT22;65441;44.748;37.600;2023-04-01T01:14:46;5.47;72.79
76577;DHT22;65441;44.748;37.600;2023-04-01T01:17:23;5.47;72.91
76577;DHT22;65441;44.748;37.600;2023-04-01T01:20:08;5.46;73.38
76577;DHT22;65441;44.748;37.600;2023-04-01T01:22:55;5.47;73.38
76577;DHT22;65441;44.748;37.600;2023-04-01T01:25:37;5.49;73.18
76577;DHT22;65441;44.748;37.600;2023-04-01T01:28:24;5.51;73.26
76577;DHT22;65441;44.748;37.600;2023-04-01T01:31:00;5.50;72.78
76577;DHT22;65441;44.748;37.600;2023-04-01T01:34:01;5.52;72.70
76577;DHT22;65441;44.748;37.600;2023-04-01T01:36:33;5.54;73.21
76577;DHT22;65441;44.748;37.600;2023-04-01T01:39:05;5.56;73.11
76577;DHT22;65441;44.748;37.600;2023-04-01T01:41:36;5.51;73.91
76577;DHT22;65441;44.748;37.600;2023-04-01T01:44:11;5.54;73.93
76577;DHT22;65441;44.748;37.600;2023-04-01T01:46:42;5.59;73.81
76577;DHT22;65441;44.748;37.600;2023-04-01T01:49:13;5.59;74.22
76577;DHT22;65441;44.748;37.600;2023-04-01T01:51:44;5.60;74.12
76577;DHT22;65441;44.748;37.600;2023-04-01T01:54:15;5.56;74.39
76577;DHT22;65441;44.748;37.600;2023-04-01T01:56:46;5.55;74.27
76577;DHT22;65441;44.748;37.600;2023-04-01T01:59:19;5.59;74.16
76577;DHT22;65441;44.748;37.600;2023-04-01T02:01:50;5.59;74.08
76577;DHT22;65441;44.748;37.600;2023-04-01T02:04:21;5.57;74.09
76577;DHT22;65441;44.748;37.600;2023-04-01T02:06:56;5.52;74.06
76577;DHT22;65441;44.748;37.600;2023-04-01T02:09:27;5.45;74.97
76577;DHT22;65441;44.748;37.600;2023-04-01T02:11:59;5.50;74.46
76577;DHT22;65441;44.748;37.600;2023-04-01T02:14:37;5.46;75.15
76577;DHT22;65441;44.748;37.600;2023-04-01T02:17:11;5.45;75.38
76577;DHT22;65441;44.748;37.600;2023-04-01T02:19:46;5.49;75.17
76577;DHT22;65441;44.748;37.600;2023-04-01T02:22:21;5.49;75.07
76577;DHT22;65441;44.748;37.600;2023-04-01T02:24:53;5.48;75.09
76577;DHT22;65441;44.748;37.600;2023-04-01T02:27:24;5.51;75.54
76577;DHT22;65441;44.748;37.600;2023-04-01T02:29:53;5.52;75.05
76577;DHT22;65441;44.748;37.600;2023-04-01T02:32:22;5.53;75.72
76577;DHT22;65441;44.748;37.600;2023-04-01T02:34:51;5.55;75.34
76577;DHT22;65441;44.748;37.600;2023-04-01T02:37:22;5.57;75.81
76577;DHT22;65441;44.748;37.600;2023-04-01T02:39:51;5.56;75.73
76577;DHT22;65441;44.748;37.600;2023-04-01T02:42:20;5.53;76.18
76577;DHT22;65441;44.748;37.600;2023-04-01T02:44:50;5.54;75.86
76577;DHT22;65441;44.748;37.600;2023-04-01T02:47:19;5.59;76.24
76577;DHT22;65441;44.748;37.600;2023-04-01T02:49:47;5.61;76.15
76577;DHT22;65441;44.748;37.600;2023-04-01T02:52:16;5.57;76.53
76577;DHT22;65441;44.748;37.600;2023-04-01T02:54:47;5.59;76.76
76577;DHT22;65441;44.748;37.600;2023-04-01T02:57:16;5.53;77.15
76577;DHT22;65441;44.748;37.600;2023-04-01T02:59:45;5.52;77.29
76577;DHT22;65441;44.748;37.600;2023-04-01T03:02:14;5.59;76.90
76577;DHT22;65441;44.748;37.600;2023-04-01T03:04:43;5.59;76.95
76577;DHT22;65441;44.748;37.600;2023-04-01T03:07:13;5.59;76.63
76577;DHT22;65441;44.748;37.600;2023-04-01T03:09:42;5.64;76.10
76577;DHT22;65441;44.748;37.600;2023-04-01T03:12:12;5.66;75.95
76577;DHT22;65441;44.748;37.600;2023-04-01T03:14:50;5.67;75.99
76577;DHT22;65441;44.748;37.600;2023-04-01T03:17:19;5.71;75.89
76577;DHT22;65441;44.748;37.600;2023-04-01T03:19:48;5.74;75.74
76577;DHT22;65441;44.748;37.600;2023-04-01T03:22:17;5.76;75.80
76577;DHT22;65441;44.748;37.600;2023-04-01T03:24:49;5.71;75.78
76577;DHT22;65441;44.748;37.600;2023-04-01T03:27:19;5.77;75.23
76577;DHT22;65441;44.748;37.600;2023-04-01T03:29:48;5.80;75.68
76577;DHT22;65441;44.748;37.600;2023-04-01T03:32:17;5.82;75.40
76577;DHT22;65441;44.748;37.600;2023-04-01T03:34:46;5.87;75.40
76577;DHT22;65441;44.748;37.600;2023-04-01T03:37:15;5.87;75.52
76577;DHT22;65441;44.748;37.600;2023-04-01T03:39:44;5.93;75.26
76577;DHT22;65441;44.748;37.600;2023-04-01T03:42:13;6.00;74.96
76577;DHT22;65441;44.748;37.600;2023-04-01T03:44:44;6.23;74.40
76577;DHT22;65441;44.748;37.600;2023-04-01T03:47:18;6.58;72.74
76577;DHT22;65441;44.748;37.600;2023-04-01T03:49:50;6.53;73.25
76577;DHT22;65441;44.748;37.600;2023-04-01T03:52:21;6.99;71.94
76577;DHT22;65441;44.748;37.600;2023-04-01T03:54:57;7.52;70.08
76577;DHT22;65441;44.748;37.600;2023-04-01T03:57:28;7.72;69.26
76577;DHT22;65441;44.748;37.600;2023-04-01T04:00:02;8.61;65.94
76577;DHT22;65441;44.748;37.600;2023-04-01T04:02:41;9.37;63.67
76577;DHT22;65441;44.748;37.600;2023-04-01T04:05:14;9.80;62.11
76577;DHT22;65441;44.748;37.600;2023-04-01T04:07:43;10.00;60.71
76577;DHT22;65441;44.748;37.600;2023-04-01T04:10:13;10.01;60.54
76577;DHT22;65441;44.748;37.600;2023-04-01T04:12:43;10.04;61.09
76577;DHT22;65441;44.748;37.600;2023-04-01T04:15:14;9.77;61.85
76577;DHT22;65441;44.748;37.600;2023-04-01T04:17:44;10.08;61.33
76577;DHT22;65441;44.748;37.600;2023-04-01T04:20:15;9.78;61.39
76577;DHT22;65441;44.748;37.600;2023-04-01T04:22:43;9.70;61.31
76577;DHT22;65441;44.748;37.600;2023-04-01T04:25:12;9.29;62.30
76577;DHT22;65441;44.748;37.600;2023-04-01T04:27:41;9.40;61.35
76577;DHT22;65441;44.748;37.600;2023-04-01T04:30:15;9.61;61.11
76577;DHT22;65441;44.748;37.600;2023-04-01T04:32:43;9.62;62.03
76577;DHT22;65441;44.748;37.600;2023-04-01T04:35:13;9.56;63.38
76577;DHT22;65441;44.748;37.600;2023-04-01T04:37:42;9.80;62.79
76577;DHT22;65441;44.748;37.600;2023-04-01T04:40:11;9.79;61.71
76577;DHT22;65441;44.748;37.600;2023-04-01T04:42:40;9.67;62.49
76577;DHT22;65441;44.748;37.600;2023-04-01T04:45:14;10.00;61.98
76577;DHT22;65441;44.748;37.600;2023-04-01T04:47:52;10.42;60.45
76577;DHT22;65441;44.748;37.600;2023-04-01T04:50:21;10.34;60.20
76577;DHT22;65441;44.748;37.600;2023-04-01T04:52:51;10.54;59.20
76577;DHT22;65441;44.748;37.600;2023-04-01T04:55:21;10.89;57.66
76577;DHT22;65441;44.748;37.600;2023-04-01T04:57:59;9.99;60.35
76577;DHT22;65441;44.748;37.600;2023-04-01T05:00:30;10.05;61.77
76577;DHT22;65441;44.748;37.600;2023-04-01T05:03:01;10.33;61.28
76577;DHT22;65441;44.748;37.600;2023-04-01T05:05:30;10.45;61.07
76577;DHT22;65441;44.748;37.600;2023-04-01T05:07:59;10.29;61.50
76577;DHT22;65441;44.748;37.600;2023-04-01T05:10:28;9.63;64.45
76577;DHT22;65441;44.748;37.600;2023-04-01T05:12:58;9.78;64.64
76577;DHT22;65441;44.748;37.600;2023-04-01T05:15:27;10.14;63.60
76577;DHT22;65441;44.748;37.600;2023-04-01T05:17:57;9.56;65.14
76577;DHT22;65441;44.748;37.600;2023-04-01T05:20:26;9.81;63.79
76577;DHT22;65441;44.748;37.600;2023-04-01T05:22:56;9.81;63.69
76577;DHT22;65441;44.748;37.600;2023-04-01T05:25:25;9.48;64.81
76577;DHT22;65441;44.748;37.600;2023-04-01T05:27:55;9.80;64.95
76577;DHT22;65441;44.748;37.600;2023-04-01T05:30:24;9.86;63.63
76577;DHT22;65441;44.748;37.600;2023-04-01T05:33:03;9.88;64.27
76577;DHT22;65441;44.748;37.600;2023-04-01T05:35:32;10.06;63.85
76577;DHT22;65441;44.748;37.600;2023-04-01T05:38:01;10.10;62.83
76577;DHT22;65441;44.748;37.600;2023-04-01T05:40:30;10.05;63.53
76577;DHT22;65441;44.748;37.600;2023-04-01T05:42:59;9.91;64.53
76577;DHT22;65441;44.748;37.600;2023-04-01T05:45:28;9.98;64.09
76577;DHT22;65441;44.748;37.600;2023-04-01T05:48:02;10.86;61.73
76577;DHT22;65441;44.748;37.600;2023-04-01T05:50:37;11.04;59.37
76577;DHT22;65441;44.748;37.600;2023-04-01T05:53:08;11.42;59.72
76577;DHT22;65441;44.748;37.600;2023-04-01T05:55:38;11.05;59.93
76577;DHT22;65441;44.748;37.600;2023-04-01T05:58:06;11.54;57.87
76577;DHT22;65441;44.748;37.600;2023-04-01T06:00:37;10.41;60.35
76577;DHT22;65441;44.748;37.600;2023-04-01T06:03:07;10.09;62.68
76577;DHT22;65441;44.748;37.600;2023-04-01T06:05:39;10.44;64.07
76577;DHT22;65441;44.748;37.600;2023-04-01T06:08:11;10.13;63.89
76577;DHT22;65441;44.748;37.600;2023-04-01T06:10:52;10.37;63.16
76577;DHT22;65441;44.748;37.600;2023-04-01T06:13:31;10.09;63.73
76577;DHT22;65441;44.748;37.600;2023-04-01T06:16:08;10.28;64.43
76577;DHT22;65441;44.748;37.600;2023-04-01T06:19:02;10.43;63.57
76577;DHT22;65441;44.748;37.600;2023-04-01T06:22:06;10.12;63.53
76577;DHT22;65441;44.748;37.600;2023-04-01T06:25:02;9.82;65.31
76577;DHT22;65441;44.748;37.600;2023-04-01T06:27:48;10.16;64.49
76577;DHT22;65441;44.748;37.600;2023-04-01T06:30:30;10.11;63.81
76577;DHT22;65441;44.748;37.600;2023-04-01T06:33:12;10.15;65.20
76577;DHT22;65441;44.748;37.600;2023-04-01T06:36:06;10.27;64.68
76577;DHT22;65441;44.748;37.600;2023-04-01T06:38:53;10.64;63.09
76577;DHT22;65441;44.748;37.600;2023-04-01T06:41:53;10.21;63.79
76577;DHT22;65441;44.748;37.600;2023-04-01T06:44:38;10.84;65.15
76577;DHT22;65441;44.748;37.600;2023-04-01T06:47:38;10.87;62.06
76577;DHT22;65441;44.748;37.600;2023-04-01T06:50:56;10.93;61.99
76577;DHT22;65441;44.748;37.600;2023-04-01T06:53:53;10.55;63.76
76577;DHT22;65441;44.748;37.600;2023-04-01T06:56:44;10.33;63.30
76577;DHT22;65441;44.748;37.600;2023-04-01T06:59:22;10.62;63.90
76577;DHT22;65441;44.748;37.600;2023-04-01T07:01:55;11.45;62.72
76577;DHT22;65441;44.748;37.600;2023-04-01T07:04:29;11.28;62.51
76577;DHT22;65441;44.748;37.600;2023-04-01T07:07:03;11.47;61.73
76577;DHT22;65441;44.748;37.600;2023-04-01T07:09:40;11.17;62.05
76577;DHT22;65441;44.748;37.600;2023-04-01T07:12:37;11.27;61.75
76577;DHT22;65441;44.748;37.600;2023-04-01T07:15:37;11.33;61.34
76577;DHT22;65441;44.748;37.600;2023-04-01T07:18:14;11.07;61.28
76577;DHT22;65441;44.748;37.600;2023-04-01T07:20:44;11.03;62.70
76577;DHT22;65441;44.748;37.600;2023-04-01T07:23:22;11.37;61.31
76577;DHT22;65441;44.748;37.600;2023-04-01T07:26:00;11.87;58.01
76577;DHT22;65441;44.748;37.600;2023-04-01T07:28:31;12.02;60.60
76577;DHT22;65441;44.748;37.600;2023-04-01T07:31:34;11.83;60.86
76577;DHT22;65441;44.748;37.600;2023-04-01T07:34:09;11.32;61.99
76577;DHT22;65441;44.748;37.600;2023-04-01T07:36:45;11.10;61.80
76577;DHT22;65441;44.748;37.600;2023-04-01T07:39:26;11.30;61.70
76577;DHT22;65441;44.748;37.600;2023-04-01T07:42:30;11.69;59.86
76577;DHT22;65441;44.748;37.600;2023-04-01T07:45:09;11.47;59.45
76577;DHT22;65441;44.748;37.600;2023-04-01T07:48:01;11.47;61.15
76577;DHT22;65441;44.748;37.600;2023-04-01T07:50:35;11.10;62.37
76577;DHT22;65441;44.748;37.600;2023-04-01T07:53:13;10.66;62.98
76577;DHT22;65441;44.748;37.600;2023-04-01T07:55:48;11.03;64.50
76577;DHT22;65441;44.748;37.600;2023-04-01T07:58:24;11.32;61.32
76577;DHT22;65441;44.748;37.600;2023-04-01T08:00:59;11.31;62.22
76577;DHT22;65441;44.748;37.600;2023-04-01T08:03:49;11.05;61.30
76577;DHT22;65441;44.748;37.600;2023-04-01T08:06:27;11.01;62.64
76577;DHT22;65441;44.748;37.600;2023-04-01T08:09:04;11.11;63.24
76577;DHT22;65441;44.748;37.600;2023-04-01T08:12:03;11.07;63.23
76577;DHT22;65441;44.748;37.600;2023-04-01T08:14:59;11.15;61.64
76577;DHT22;65441;44.748;37.600;2023-04-01T08:17:54;11.56;59.33
76577;DHT22;65441;44.748;37.600;2023-04-01T08:20:32;11.36;62.30
76577;DHT22;65441;44.748;37.600;2023-04-01T08:23:07;11.29;62.02
76577;DHT22;65441;44.748;37.600;2023-04-01T08:25:46;11.18;62.85
76577;DHT22;65441;44.748;37.600;2023-04-01T08:28:23;10.93;63.37
76577;DHT22;65441;44.748;37.600;2023-04-01T08:30:56;11.08;64.41
76577;DHT22;65441;44.748;37.600;2023-04-01T08:33:28;11.59;62.28
76577;DHT22;65441;44.748;37.600;2023-04-01T08:36:12;11.77;61.30
76577;DHT22;65441;44.748;37.600;2023-04-01T08:38:51;11.52;61.25
76577;DHT22;65441;44.748;37.600;2023-04-01T08:41:34;10.84;63.41
76577;DHT22;65441;44.748;37.600;2023-04-01T08:47:50;11.03;62.44
76577;DHT22;65441;44.748;37.600;2023-04-01T08:53:43;11.33;60.86
76577;DHT22;65441;44.748;37.600;2023-04-01T08:56:21;11.36;60.87
76577;DHT22;65441;44.748;37.600;2023-04-01T08:59:27;11.24;63.23
76577;DHT22;65441;44.748;37.600;2023-04-01T09:02:25;10.86;62.08
76577;DHT22;65441;44.748;37.600;2023-04-01T09:05:45;10.80;62.94
76577;DHT22;65441;44.748;37.600;2023-04-01T09:08:25;10.65;63.81
76577;DHT22;65441;44.748;37.600;2023-04-01T09:11:08;10.99;63.36
76577;DHT22;65441;44.748;37.600;2023-04-01T09:14:10;10.69;63.40
76577;DHT22;65441;44.748;37.600;2023-04-01T09:20:06;11.57;62.15
76577;DHT22;65441;44.748;37.600;2023-04-01T09:22:53;11.66;62.33
76577;DHT22;65441;44.748;37.600;2023-04-01T09:25:44;10.96;62.50
76577;DHT22;65441;44.748;37.600;2023-04-01T09:28:19;11.46;62.32
76577;DHT22;65441;44.748;37.600;2023-04-01T09:31:01;11.37;62.31
76577;DHT22;65441;44.748;37.600;2023-04-01T09:34:04;11.85;61.45
76577;DHT22;65441;44.748;37.600;2023-04-01T09:37:13;11.57;61.25
76577;DHT22;65441;44.748;37.600;2023-04-01T09:40:01;11.61;63.18
76577;DHT22;65441;44.748;37.600;2023-04-01T09:42:44;11.42;61.50
76577;DHT22;65441;44.748;37.600;2023-04-01T09:45:41;11.18;62.47
76577;DHT22;65441;44.748;37.600;2023-04-01T09:48:20;11.33;61.52
76577;DHT22;65441;44.748;37.600;2023-04-01T09:50:57;11.46;61.70
76577;DHT22;65441;44.748;37.600;2023-04-01T09:53:52;11.12;62.97
76577;DHT22;65441;44.748;37.600;2023-04-01T09:56:52;11.41;60.94
76577;DHT22;65441;44.748;37.600;2023-04-01T10:00:03;11.88;60.76
76577;DHT22;65441;44.748;37.600;2023-04-01T10:06:51;12.12;57.30
76577;DHT22;65441;44.748;37.600;2023-04-01T10:19:10;11.58;59.96
76577;DHT22;65441;44.748;37.600;2023-04-01T10:31:43;11.39;59.96
76577;DHT22;65441;44.748;37.600;2023-04-01T10:34:47;11.73;60.28
76577;DHT22;65441;44.748;37.600;2023-04-01T10:40:57;12.13;58.32
76577;DHT22;65441;44.748;37.600;2023-04-01T10:44:26;12.55;58.12
76577;DHT22;65441;44.748;37.600;2023-04-01T10:50:47;11.99;59.46
76577;DHT22;65441;44.748;37.600;2023-04-01T10:53:42;12.11;58.37
76577;DHT22;65441;44.748;37.600;2023-04-01T10:56:43;12.30;58.29
76577;DHT22;65441;44.748;37.600;2023-04-01T11:06:45;12.30;59.41
76577;DHT22;65441;44.748;37.600;2023-04-01T11:16:20;11.68;62.18
76577;DHT22;65441;44.748;37.600;2023-04-01T11:21:51;10.83;62.85
76577;DHT22;65441;44.748;37.600;2023-04-01T11:27:58;11.08;62.87
76577;DHT22;65441;44.748;37.600;2023-04-01T11:30:45;11.46;63.42
76577;DHT22;65441;44.748;37.600;2023-04-01T11:33:19;11.57;61.81
76577;DHT22;65441;44.748;37.600;2023-04-01T11:36:03;11.52;63.18
76577;DHT22;65441;44.748;37.600;2023-04-01T11:38:54;11.60;60.17
76577;DHT22;65441;44.748;37.600;2023-04-01T11:41:47;11.88;60.17
76577;DHT22;65441;44.748;37.600;2023-04-01T11:44:39;11.53;60.39
76577;DHT22;65441;44.748;37.600;2023-04-01T11:47:45;11.57;58.52
76577;DHT22;65441;44.748;37.600;2023-04-01T11:50:24;11.73;59.86
76577;DHT22;65441;44.748;37.600;2023-04-01T11:53:12;11.48;61.44
76577;DHT22;65441;44.748;37.600;2023-04-01T11:55:56;11.16;61.10
76577;DHT22;65441;44.748;37.600;2023-04-01T11:58:47;11.15;62.61
76577;DHT22;65441;44.748;37.600;2023-04-01T12:01:36;11.07;60.88
76577;DHT22;65441;44.748;37.600;2023-04-01T12:04:38;10.60;63.84
76577;DHT22;65441;44.748;37.600;2023-04-01T12:07:18;10.89;63.98
76577;DHT22;65441;44.748;37.600;2023-04-01T12:09:58;11.27;61.29
76577;DHT22;65441;44.748;37.600;2023-04-01T12:12:38;11.60;61.12
76577;DHT22;65441;44.748;37.600;2023-04-01T12:15:19;11.59;62.38
76577;DHT22;65441;44.748;37.600;2023-04-01T12:17:53;11.51;58.13
76577;DHT22;65441;44.748;37.600;2023-04-01T12:20:36;11.47;61.31
76577;DHT22;65441;44.748;37.600;2023-04-01T12:23:28;11.28;62.37
76577;DHT22;65441;44.748;37.600;2023-04-01T12:26:15;11.39;59.17
76577;DHT22;65441;44.748;37.600;2023-04-01T12:29:04;11.24;59.61
76577;DHT22;65441;44.748;37.600;2023-04-01T12:31:42;11.34;59.09
76577;DHT22;65441;44.748;37.600;2023-04-01T12:34:49;11.13;61.80
76577;DHT22;65441;44.748;37.600;2023-04-01T12:37:35;11.03;60.87
76577;DHT22;65441;44.748;37.600;2023-04-01T12:40:24;11.17;61.25
76577;DHT22;65441;44.748;37.600;2023-04-01T12:43:10;11.23;60.95
76577;DHT22;65441;44.748;37.600;2023-04-01T12:45:53;11.27;63.34
76577;DHT22;65441;44.748;37.600;2023-04-01T12:48:37;11.03;62.17
76577;DHT22;65441;44.748;37.600;2023-04-01T12:51:37;11.09;62.67
76577;DHT22;65441;44.748;37.600;2023-04-01T12:57:45;10.89;63.33
76577;DHT22;65441;44.748;37.600;2023-04-01T13:00:21;11.30;61.82
76577;DHT22;65441;44.748;37.600;2023-04-01T13:03:06;11.29;60.93
76577;DHT22;65441;44.748;37.600;2023-04-01T13:06:07;10.83;61.82
76577;DHT22;65441;44.748;37.600;2023-04-01T13:08:44;11.04;66.04
76577;DHT22;65441;44.748;37.600;2023-04-01T13:11:21;11.08;62.17
76577;DHT22;65441;44.748;37.600;2023-04-01T13:14:13;10.92;62.25
76577;DHT22;65441;44.748;37.600;2023-04-01T13:16:51;10.99;62.92
76577;DHT22;65441;44.748;37.600;2023-04-01T13:19:27;10.99;62.49
76577;DHT22;65441;44.748;37.600;2023-04-01T13:22:04;11.11;63.14
76577;DHT22;65441;44.748;37.600;2023-04-01T13:24:42;11.09;59.63
76577;DHT22;65441;44.748;37.600;2023-04-01T13:27:18;10.95;60.64
76577;DHT22;65441;44.748;37.600;2023-04-01T13:30:00;10.74;61.29
76577;DHT22;65441;44.748;37.600;2023-04-01T13:32:36;10.77;62.37
76577;DHT22;65441;44.748;37.600;2023-04-01T13:35:23;10.87;58.72
76577;DHT22;65441;44.748;37.600;2023-04-01T13:38:06;10.78;60.47
76577;DHT22;65441;44.748;37.600;2023-04-01T13:40:41;10.86;62.82
76577;DHT22;65441;44.748;37.600;2023-04-01T13:43:16;10.70;62.05
76577;DHT22;65441;44.748;37.600;2023-04-01T13:46:03;10.66;60.99
76577;DHT22;65441;44.748;37.600;2023-04-01T13:48:50;10.56;64.31
76577;DHT22;65441;44.748;37.600;2023-04-01T13:54:49;10.05;65.89
76577;DHT22;65441;44.748;37.600;2023-04-01T13:57:42;9.76;67.69
76577;DHT22;65441;44.748;37.600;2023-04-01T14:00:35;9.75;65.40
76577;DHT22;65441;44.748;37.600;2023-04-01T14:03:19;9.63;65.69
76577;DHT22;65441;44.748;37.600;2023-04-01T14:06:16;9.66;66.94
76577;DHT22;65441;44.748;37.600;2023-04-01T14:09:06;9.59;67.18
76577;DHT22;65441;44.748;37.600;2023-04-01T14:11:45;9.62;68.19
76577;DHT22;65441;44.748;37.600;2023-04-01T14:14:30;9.44;67.42
76577;DHT22;65441;44.748;37.600;2023-04-01T14:17:13;9.54;66.93
76577;DHT22;65441;44.748;37.600;2023-04-01T14:23:17;9.55;68.20
76577;DHT22;65441;44.748;37.600;2023-04-01T14:25:58;9.63;70.10
76577;DHT22;65441;44.748;37.600;2023-04-01T14:28:38;9.49;67.62
76577;DHT22;65441;44.748;37.600;2023-04-01T14:31:44;9.32;67.43
76577;DHT22;65441;44.748;37.600;2023-04-01T14:34:25;9.22;68.30
76577;DHT22;65441;44.748;37.600;2023-04-01T14:37:07;9.22;68.45
76577;DHT22;65441;44.748;37.600;2023-04-01T14:45:49;9.00;70.12
76577;DHT22;65441;44.748;37.600;2023-04-01T14:48:30;8.97;70.26
76577;DHT22;65441;44.748;37.600;2023-04-01T14:51:08;8.85;69.43
76577;DHT22;65441;44.748;37.600;2023-04-01T14:53:41;8.78;69.89
76577;DHT22;65441;44.748;37.600;2023-04-01T14:56:13;8.78;71.08
76577;DHT22;65441;44.748;37.600;2023-04-01T14:59:01;8.76;72.11
76577;DHT22;65441;44.748;37.600;2023-04-01T15:01:40;8.74;72.91
76577;DHT22;65441;44.748;37.600;2023-04-01T15:12:59;8.74;72.72
76577;DHT22;65441;44.748;37.600;2023-04-01T15:15:41;8.75;73.32
76577;DHT22;65441;44.748;37.600;2023-04-01T15:18:20;8.68;74.09
76577;DHT22;65441;44.748;37.600;2023-04-01T15:21:17;8.57;74.38
76577;DHT22;65441;44.748;37.600;2023-04-01T15:23:56;8.53;74.23
76577;DHT22;65441;44.748;37.600;2023-04-01T15:32:45;8.55;73.28
76577;DHT22;65441;44.748;37.600;2023-04-01T15:35:29;8.56;73.38
76577;DHT22;65441;44.748;37.600;2023-04-01T15:38:06;8.56;73.52
76577;DHT22;65441;44.748;37.600;2023-04-01T15:40:44;8.48;73.99
76577;DHT22;65441;44.748;37.600;2023-04-01T15:43:27;8.51;74.24
76577;DHT22;65441;44.748;37.600;2023-04-01T15:46:26;8.46;74.15
76577;DHT22;65441;44.748;37.600;2023-04-01T15:52:15;8.51;73.35
76577;DHT22;65441;44.748;37.600;2023-04-01T15:54:57;8.48;73.80
76577;DHT22;65441;44.748;37.600;2023-04-01T15:57:33;8.52;74.74
76577;DHT22;65441;44.748;37.600;2023-04-01T16:00:20;8.39;75.92
76577;DHT22;65441;44.748;37.600;2023-04-01T16:02:58;8.44;75.57
76577;DHT22;65441;44.748;37.600;2023-04-01T16:05:42;8.39;75.28
76577;DHT22;65441;44.748;37.600;2023-04-01T16:08:44;8.41;74.83
76577;DHT22;65441;44.748;37.600;2023-04-01T16:11:23;8.34;74.66
76577;DHT22;65441;44.748;37.600;2023-04-01T16:14:06;8.33;74.88
76577;DHT22;65441;44.748;37.600;2023-04-01T16:16:49;8.33;72.79
76577;DHT22;65441;44.748;37.600;2023-04-01T16:19:29;8.33;74.01
76577;DHT22;65441;44.748;37.600;2023-04-01T16:22:05;8.34;74.27
76577;DHT22;65441;44.748;37.600;2023-04-01T16:24:40;8.37;73.49
76577;DHT22;65441;44.748;37.600;2023-04-01T16:27:14;8.36;73.70
76577;DHT22;65441;44.748;37.600;2023-04-01T16:29:48;8.37;72.82
76577;DHT22;65441;44.748;37.600;2023-04-01T16:32:23;8.34;73.44
76577;DHT22;65441;44.748;37.600;2023-04-01T16:35:16;8.46;73.65
76577;DHT22;65441;44.748;37.600;2023-04-01T16:37:51;8.38;73.94
76577;DHT22;65441;44.748;37.600;2023-04-01T16:40:37;8.38;73.73
76577;DHT22;65441;44.748;37.600;2023-04-01T16:43:12;8.39;73.76
76577;DHT22;65441;44.748;37.600;2023-04-01T16:45:45;8.38;74.36
76577;DHT22;65441;44.748;37.600;2023-04-01T16:48:24;8.36;73.66
76577;DHT22;65441;44.748;37.600;2023-04-01T16:50:59;8.37;74.15
76577;DHT22;65441;44.748;37.600;2023-04-01T16:53:37;8.30;74.18
76577;DHT22;65441;44.748;37.600;2023-04-01T16:56:15;8.34;73.73
76577;DHT22;65441;44.748;37.600;2023-04-01T16:58:58;8.30;73.18
76577;DHT22;65441;44.748;37.600;2023-04-01T17:01:36;8.37;73.32
76577;DHT22;65441;44.748;37.600;2023-04-01T17:04:16;8.31;73.41
76577;DHT22;65441;44.748;37.600;2023-04-01T17:06:52;8.34;72.49
76577;DHT22;65441;44.748;37.600;2023-04-01T17:09:36;8.26;73.15
76577;DHT22;65441;44.748;37.600;2023-04-01T17:12:15;8.22;73.98
76577;DHT22;65441;44.748;37.600;2023-04-01T17:14:51;8.22;73.93
76577;DHT22;65441;44.748;37.600;2023-04-01T17:17:35;8.34;75.13
76577;DHT22;65441;44.748;37.600;2023-04-01T17:23:01;9.05;70.32
76577;DHT22;65441;44.748;37.600;2023-04-01T17:25:39;8.76;68.79
76577;DHT22;65441;44.748;37.600;2023-04-01T17:28:31;8.97;70.21
76577;DHT22;65441;44.748;37.600;2023-04-01T17:31:10;9.12;70.91
76577;DHT22;65441;44.748;37.600;2023-04-01T17:34:00;9.11;70.05
76577;DHT22;65441;44.748;37.600;2023-04-01T17:36:41;9.12;69.84
76577;DHT22;65441;44.748;37.600;2023-04-01T17:42:13;8.52;72.87
76577;DHT22;65441;44.748;37.600;2023-04-01T17:44:54;8.45;73.36
76577;DHT22;65441;44.748;37.600;2023-04-01T17:47:51;8.37;73.45
76577;DHT22;65441;44.748;37.600;2023-04-01T17:50:24;8.39;72.26
76577;DHT22;65441;44.748;37.600;2023-04-01T17:53:06;8.32;67.11
76577;DHT22;65441;44.748;37.600;2023-04-01T17:55:53;8.31;68.52
76577;DHT22;65441;44.748;37.600;2023-04-01T17:58:29;8.33;71.37
76577;DHT22;65441;44.748;37.600;2023-04-01T18:01:39;8.29;71.90
76577;DHT22;65441;44.748;37.600;2023-04-01T18:04:30;8.27;73.19
76577;DHT22;65441;44.748;37.600;2023-04-01T18:07:21;8.26;73.93
76577;DHT22;65441;44.748;37.600;2023-04-01T18:10:05;8.27;74.84
76577;DHT22;65441;44.748;37.600;2023-04-01T18:12:44;8.15;75.18
76577;DHT22;65441;44.748;37.600;2023-04-01T18:15:28;8.17;75.18
76577;DHT22;65441;44.748;37.600;2023-04-01T18:18:14;8.12;75.15
76577;DHT22;65441;44.748;37.600;2023-04-01T18:20:53;8.14;75.51
76577;DHT22;65441;44.748;37.600;2023-04-01T18:23:30;8.07;75.76